createdAt,value
2018-05-10T00:02:24.469Z,17.70
2018-05-10T00:04:51.636Z,17.70
2018-05-10T00:07:19.573Z,17.60
2018-05-10T00:09:46.744Z,17.60
2018-05-10T00:12:13.915Z,17.70
2018-05-10T00:14:41.848Z,17.60
2018-05-10T00:17:09.008Z,17.60
2018-05-10T00:19:36.224Z,17.60
2018-05-10T00:22:03.399Z,17.60
2018-05-10T00:24:30.568Z,17.60
2018-05-10T00:26:57.749Z,17.60
2018-05-10T00:29:24.960Z,17.70
2018-05-10T00:31:52.123Z,17.60
2018-05-10T00:34:19.288Z,17.60
2018-05-10T00:36:47.223Z,17.70
2018-05-10T00:39:14.391Z,17.60
2018-05-10T00:41:41.597Z,17.70
2018-05-10T00:44:08.766Z,17.60
2018-05-10T00:46:35.932Z,17.70
2018-05-10T00:49:03.095Z,17.70
2018-05-10T00:51:30.313Z,17.60
2018-05-10T00:53:57.487Z,17.70
2018-05-10T00:56:24.656Z,17.70
2018-05-10T00:58:51.820Z,17.60
2018-05-10T01:01:19.772Z,17.60
2018-05-10T01:03:46.940Z,17.60
2018-05-10T01:06:14.099Z,17.70
2018-05-10T01:08:42.813Z,17.70
2018-05-10T01:11:10.902Z,17.60
2018-05-10T01:13:38.996Z,17.60
2018-05-10T01:16:06.184Z,17.60
2018-05-10T01:18:34.120Z,17.60
2018-05-10T01:21:01.332Z,17.60
2018-05-10T01:23:28.497Z,17.60
2018-05-10T01:25:55.705Z,17.60
2018-05-10T01:28:23.640Z,17.60
2018-05-10T01:30:50.860Z,17.60
2018-05-10T01:33:18.031Z,17.60
2018-05-10T01:35:51.128Z,17.60
2018-05-10T01:38:18.297Z,17.60
2018-05-10T01:40:45.463Z,17.60
2018-05-10T01:43:12.632Z,17.60
2018-05-10T01:45:40.564Z,17.60
2018-05-10T01:48:07.733Z,17.60
2018-05-10T01:50:34.900Z,17.60
2018-05-10T01:53:02.879Z,17.60
2018-05-10T01:55:30.813Z,17.60
2018-05-10T01:57:58.028Z,17.60
2018-05-10T02:00:25.189Z,17.60
2018-05-10T02:02:52.351Z,17.60
2018-05-10T02:05:19.564Z,17.60
2018-05-10T02:07:46.727Z,17.60
2018-05-10T02:10:13.898Z,17.60
2018-05-10T02:12:41.069Z,17.60
2018-05-10T02:15:08.236Z,17.60
2018-05-10T02:17:35.420Z,17.60
2018-05-10T02:20:02.580Z,17.60
2018-05-10T02:22:29.756Z,17.60
2018-05-10T02:24:56.974Z,17.60
2018-05-10T02:27:24.144Z,17.60
2018-05-10T02:29:51.388Z,17.60
2018-05-10T02:32:18.508Z,17.60
2018-05-10T02:34:45.684Z,17.60
2018-05-10T02:37:12.864Z,17.60
2018-05-10T02:39:40.054Z,17.60
2018-05-10T02:42:07.219Z,17.50
2018-05-10T02:44:35.160Z,17.60
2018-05-10T02:47:02.329Z,17.50
2018-05-10T02:49:29.500Z,17.60
2018-05-10T02:51:57.476Z,17.60
2018-05-10T02:54:25.410Z,17.50
2018-05-10T02:56:52.580Z,17.50
2018-05-10T02:59:20.520Z,17.50
2018-05-10T03:01:47.689Z,17.50
2018-05-10T03:04:14.856Z,17.50
2018-05-10T03:06:42.788Z,17.50
2018-05-10T03:09:09.957Z,17.50
2018-05-10T03:11:37.126Z,17.50
2018-05-10T03:14:05.071Z,17.50
2018-05-10T03:16:32.248Z,17.50
2018-05-10T03:19:00.217Z,17.50
2018-05-10T03:21:28.149Z,17.50
2018-05-10T03:23:56.074Z,17.50
2018-05-10T03:26:24.006Z,17.50
2018-05-10T03:28:51.180Z,17.50
2018-05-10T03:31:19.112Z,17.50
2018-05-10T03:33:46.280Z,17.50
2018-05-10T03:36:13.448Z,17.50
2018-05-10T03:38:41.384Z,17.50
2018-05-10T03:41:08.552Z,17.50
2018-05-10T03:43:35.727Z,17.50
2018-05-10T03:46:03.675Z,17.50
2018-05-10T03:48:30.845Z,17.50
2018-05-10T03:50:58.782Z,17.50
2018-05-10T03:53:25.952Z,17.50
2018-05-10T03:55:53.120Z,17.50
2018-05-10T03:58:21.100Z,17.50
2018-05-10T04:00:49.032Z,17.50
2018-05-10T04:03:33.063Z,17.50
2018-05-10T04:06:06.133Z,17.50
2018-05-10T04:08:39.281Z,17.50
2018-05-10T04:11:27.006Z,17.40
2018-05-10T04:13:54.168Z,17.50
2018-05-10T04:16:22.103Z,17.40
2018-05-10T04:18:51.076Z,17.40
2018-05-10T04:21:18.239Z,17.40
2018-05-10T04:23:45.403Z,17.50
2018-05-10T04:26:12.567Z,17.40
2018-05-10T04:28:39.731Z,17.40
2018-05-10T04:31:06.904Z,17.40
2018-05-10T04:33:34.840Z,17.50
2018-05-10T04:36:02.010Z,17.40
2018-05-10T04:38:29.956Z,17.50
2018-05-10T04:40:57.121Z,17.40
2018-05-10T04:43:24.344Z,17.40
2018-05-10T04:45:51.512Z,17.40
2018-05-10T04:48:18.723Z,17.50
2018-05-10T04:50:45.906Z,17.50
2018-05-10T04:53:13.076Z,17.50
2018-05-10T04:55:40.241Z,17.50
2018-05-10T04:58:08.220Z,17.50
2018-05-10T05:00:36.152Z,17.50
2018-05-10T05:03:03.322Z,17.50
2018-05-10T05:05:30.487Z,17.50
2018-05-10T05:07:58.417Z,17.50
2018-05-10T05:10:26.397Z,17.50
2018-05-10T05:12:53.564Z,17.50
2018-05-10T05:15:20.732Z,17.50
2018-05-10T05:17:48.665Z,17.50
2018-05-10T05:20:15.868Z,17.50
2018-05-10T05:22:43.033Z,17.50
2018-05-10T05:25:10.239Z,17.50
2018-05-10T05:27:37.413Z,17.50
2018-05-10T05:30:05.387Z,17.50
2018-05-10T05:32:33.325Z,17.50
2018-05-10T05:35:00.492Z,17.50
2018-05-10T05:37:28.427Z,17.50
2018-05-10T05:39:55.588Z,17.50
2018-05-10T05:42:22.772Z,17.50
2018-05-10T05:44:50.715Z,17.60
2018-05-10T05:47:17.976Z,17.50
2018-05-10T05:49:45.140Z,17.60
2018-05-10T05:52:13.087Z,17.60
2018-05-10T05:54:41.554Z,17.50
2018-05-10T05:57:08.756Z,17.60
2018-05-10T05:59:36.734Z,17.50
2018-05-10T06:02:04.724Z,17.50
2018-05-10T06:04:31.936Z,17.50
2018-05-10T06:06:59.104Z,17.50
2018-05-10T06:09:27.040Z,17.50
2018-05-10T06:11:54.200Z,17.50
2018-05-10T06:14:21.412Z,17.50
2018-05-10T06:16:48.669Z,17.50
2018-05-10T06:19:16.608Z,17.60
2018-05-10T06:21:44.540Z,17.50
2018-05-10T06:24:11.759Z,17.50
2018-05-10T06:26:38.928Z,17.50
2018-05-10T06:29:06.106Z,17.50
2018-05-10T06:31:33.272Z,17.50
2018-05-10T06:34:01.441Z,17.60
2018-05-10T06:36:28.637Z,17.50
2018-05-10T06:38:55.805Z,17.50
2018-05-10T06:41:23.096Z,17.50
2018-05-10T06:43:50.297Z,17.60
2018-05-10T06:46:17.484Z,17.50
2018-05-10T06:48:44.752Z,17.50
2018-05-10T06:51:11.973Z,17.50
2018-05-10T06:53:39.141Z,17.50
2018-05-10T06:56:06.309Z,17.60
2018-05-10T06:58:33.480Z,17.60
2018-05-10T07:01:01.460Z,17.60
2018-05-10T07:03:28.669Z,17.50
2018-05-10T07:05:55.840Z,17.60
2018-05-10T07:08:23.944Z,17.80
2018-05-10T07:10:51.152Z,17.80
2018-05-10T07:13:18.360Z,17.90
2018-05-10T07:15:45.529Z,18.10
2018-05-10T07:18:12.737Z,18.20
2018-05-10T07:20:40.739Z,18.30
2018-05-10T07:23:07.916Z,18.30
2018-05-10T07:25:35.130Z,18.30
2018-05-10T07:28:02.304Z,18.30
2018-05-10T07:30:30.302Z,18.30
2018-05-10T07:32:57.561Z,18.40
2018-05-10T07:35:24.716Z,18.30
2018-05-10T07:37:51.928Z,18.30
2018-05-10T07:40:19.121Z,18.30
2018-05-10T07:42:46.288Z,18.30
2018-05-10T07:45:14.220Z,18.30
2018-05-10T07:47:42.179Z,18.30
2018-05-10T07:50:10.112Z,18.30
2018-05-10T07:52:37.271Z,18.20
2018-05-10T07:55:04.442Z,18.20
2018-05-10T07:57:31.612Z,18.30
2018-05-10T07:59:58.784Z,18.30
2018-05-10T08:02:25.970Z,18.30
2018-05-10T08:04:53.150Z,18.30
2018-05-10T08:07:20.324Z,18.20
2018-05-10T08:09:47.492Z,18.20
2018-05-10T08:12:14.792Z,18.20
2018-05-10T08:14:41.963Z,18.20
2018-05-10T08:17:09.139Z,18.20
2018-05-10T08:19:36.308Z,18.20
2018-05-10T08:22:04.244Z,18.20
2018-05-10T08:24:31.420Z,18.20
2018-05-10T08:26:58.592Z,18.20
2018-05-10T08:29:30.400Z,18.20
2018-05-10T08:31:57.589Z,18.20
2018-05-10T08:34:24.802Z,18.10
2018-05-10T08:36:52.037Z,18.10
2018-05-10T08:39:19.265Z,18.10
2018-05-10T08:41:47.197Z,18.10
2018-05-10T08:44:14.364Z,18.10
2018-05-10T08:46:41.621Z,18.10
2018-05-10T08:49:08.836Z,18.10
2018-05-10T08:51:36.021Z,18.20
2018-05-10T08:54:03.344Z,18.20
2018-05-10T08:56:30.597Z,18.10
2018-05-10T08:58:57.808Z,18.20
2018-05-10T09:01:25.743Z,18.20
2018-05-10T09:03:52.975Z,18.20
2018-05-10T09:06:20.185Z,18.20
2018-05-10T09:08:48.227Z,18.20
2018-05-10T09:11:15.456Z,18.20
2018-05-10T09:13:42.737Z,18.20
2018-05-10T09:16:09.955Z,18.20
2018-05-10T09:18:37.207Z,18.20
2018-05-10T09:21:04.464Z,18.10
2018-05-10T09:23:31.672Z,18.20
2018-05-10T09:25:59.652Z,18.10
2018-05-10T09:28:27.655Z,18.10
2018-05-10T09:30:54.829Z,18.10
2018-05-10T09:33:22.006Z,18.20
2018-05-10T09:35:49.940Z,18.10
2018-05-10T09:38:17.156Z,18.10
2018-05-10T09:40:44.364Z,18.10
2018-05-10T09:43:11.533Z,18.20
2018-05-10T09:45:39.504Z,18.20
2018-05-10T09:48:07.435Z,18.10
2018-05-10T09:50:34.640Z,18.10
2018-05-10T09:53:01.809Z,18.10
2018-05-10T09:55:28.979Z,18.10
2018-05-10T09:57:56.148Z,18.10
2018-05-10T10:00:29.164Z,18.10
2018-05-10T10:02:57.133Z,18.10
2018-05-10T10:05:24.301Z,18.10
2018-05-10T10:07:51.594Z,18.20
2018-05-10T10:10:18.760Z,18.20
2018-05-10T10:12:45.994Z,18.10
2018-05-10T10:15:13.158Z,18.10
2018-05-10T10:17:40.392Z,18.10
2018-05-10T10:20:08.292Z,18.10
2018-05-10T10:22:35.525Z,18.10
2018-05-10T10:25:02.735Z,18.10
2018-05-10T10:27:30.756Z,18.10
2018-05-10T10:29:58.720Z,18.10
2018-05-10T10:32:26.926Z,18.10
2018-05-10T10:34:54.149Z,18.10
2018-05-10T10:37:21.321Z,18.10
2018-05-10T10:39:48.554Z,18.10
2018-05-10T10:42:15.725Z,18.10
2018-05-10T10:44:42.953Z,18.10
2018-05-10T10:47:10.205Z,18.10
2018-05-10T10:49:37.430Z,18.10
2018-05-10T10:52:05.377Z,18.10
2018-05-10T10:54:33.312Z,18.10
2018-05-10T10:57:00.555Z,18.10
2018-05-10T10:59:27.803Z,18.10
2018-05-10T11:01:55.081Z,18.10
2018-05-10T11:04:22.315Z,18.10
2018-05-10T11:06:49.572Z,18.00
2018-05-10T11:09:17.036Z,18.00
2018-05-10T11:11:44.124Z,18.00
2018-05-10T11:14:12.148Z,18.00
2018-05-10T11:16:39.401Z,18.00
2018-05-10T11:19:06.654Z,18.00
2018-05-10T11:21:33.907Z,18.00
2018-05-10T11:24:01.084Z,18.00
2018-05-10T11:26:28.345Z,18.00
2018-05-10T11:28:55.553Z,18.00
2018-05-10T11:31:22.721Z,18.00
2018-05-10T11:33:49.971Z,18.00
2018-05-10T11:36:17.155Z,18.00
2018-05-10T11:38:45.108Z,18.10
2018-05-10T11:41:12.278Z,18.00
2018-05-10T11:43:39.594Z,18.00
2018-05-10T11:46:06.828Z,18.00
2018-05-10T11:48:34.107Z,18.00
2018-05-10T11:51:01.280Z,18.00
2018-05-10T11:53:28.452Z,18.00
2018-05-10T11:55:56.388Z,18.00
2018-05-10T11:58:24.855Z,18.00
2018-05-10T12:00:52.113Z,18.00
2018-05-10T12:03:19.275Z,18.00
2018-05-10T12:05:46.488Z,18.00
2018-05-10T12:08:13.704Z,18.00
2018-05-10T12:10:40.869Z,18.00
2018-05-10T12:13:08.803Z,18.00
2018-05-10T12:15:36.040Z,17.90
2018-05-10T12:18:03.298Z,18.00
2018-05-10T12:20:30.510Z,18.00
2018-05-10T12:22:58.453Z,17.90
2018-05-10T12:25:25.674Z,17.90
2018-05-10T12:27:52.849Z,18.00
2018-05-10T12:30:20.095Z,18.00
2018-05-10T12:32:47.333Z,17.90
2018-05-10T12:35:14.505Z,17.90
2018-05-10T12:37:41.680Z,17.90
2018-05-10T12:40:09.702Z,17.90
2018-05-10T12:42:36.869Z,17.90
2018-05-10T12:45:04.041Z,17.90
2018-05-10T12:47:31.263Z,17.90
2018-05-10T12:49:58.468Z,17.90
2018-05-10T12:52:26.484Z,17.90
2018-05-10T12:54:53.696Z,17.90
2018-05-10T12:57:21.708Z,17.90
2018-05-10T12:59:48.965Z,17.90
2018-05-10T13:02:16.217Z,17.90
2018-05-10T13:04:43.380Z,17.90
2018-05-10T13:07:10.620Z,17.90
2018-05-10T13:09:37.793Z,17.90
2018-05-10T13:12:04.963Z,17.90
2018-05-10T13:14:32.193Z,17.90
2018-05-10T13:16:59.435Z,17.90
2018-05-10T13:19:26.682Z,17.90
2018-05-10T13:21:54.038Z,17.90
2018-05-10T13:24:21.236Z,17.90
2018-05-10T13:26:49.257Z,17.90
2018-05-10T13:29:16.516Z,17.90
2018-05-10T13:31:43.770Z,17.80
2018-05-10T13:34:11.057Z,17.90
2018-05-10T13:36:38.264Z,17.90
2018-05-10T13:39:05.437Z,17.90
2018-05-10T13:41:33.033Z,17.90
2018-05-10T13:44:01.697Z,17.90
2018-05-10T13:46:28.925Z,17.90
2018-05-10T13:48:56.098Z,17.80
2018-05-10T13:51:24.868Z,17.80
2018-05-10T13:53:52.042Z,17.90
2018-05-10T13:56:19.216Z,17.90
2018-05-10T13:58:47.157Z,17.80
2018-05-10T14:01:14.329Z,17.80
2018-05-10T14:03:41.492Z,17.90
2018-05-10T14:06:09.428Z,17.90
2018-05-10T14:08:36.644Z,17.80
2018-05-10T14:11:03.949Z,17.80
2018-05-10T14:13:31.096Z,17.80
2018-05-10T14:15:58.324Z,17.80
2018-05-10T14:18:25.537Z,17.80
2018-05-10T14:20:53.482Z,17.80
2018-05-10T14:23:20.701Z,17.80
2018-05-10T14:25:47.898Z,17.80
2018-05-10T14:28:15.885Z,17.80
2018-05-10T14:30:43.052Z,17.80
2018-05-10T14:33:10.224Z,17.80
2018-05-10T14:35:37.392Z,17.80
2018-05-10T14:38:04.596Z,17.80
2018-05-10T14:40:31.780Z,17.80
2018-05-10T14:42:59.334Z,17.80
2018-05-10T14:45:26.508Z,17.80
2018-05-10T14:47:54.566Z,17.80
2018-05-10T14:50:21.816Z,17.80
2018-05-10T14:52:48.990Z,17.80
2018-05-10T14:55:16.222Z,17.80
2018-05-10T14:57:43.404Z,17.80
2018-05-10T15:00:10.573Z,17.70
2018-05-10T15:02:38.593Z,17.80
2018-05-10T15:05:05.808Z,17.70
2018-05-10T15:07:33.821Z,17.70
2018-05-10T15:10:01.076Z,17.70
2018-05-10T15:12:28.328Z,17.70
2018-05-10T15:15:08.570Z,17.80
2018-05-10T15:17:36.350Z,17.70
2018-05-10T15:20:03.517Z,17.70
2018-05-10T15:22:30.789Z,17.80
2018-05-10T15:24:57.957Z,17.80
2018-05-10T15:27:25.967Z,17.70
2018-05-10T15:29:53.148Z,17.70
2018-05-10T15:32:20.384Z,17.70
2018-05-10T15:34:47.553Z,17.70
2018-05-10T15:37:18.066Z,17.70
2018-05-10T15:39:45.264Z,17.70
2018-05-10T15:42:13.200Z,17.70
2018-05-10T15:44:40.373Z,17.70
2018-05-10T15:47:07.550Z,17.70
2018-05-10T15:49:35.493Z,17.70
2018-05-10T15:52:02.713Z,17.70
2018-05-10T15:54:29.969Z,17.70
2018-05-10T15:56:57.153Z,17.70
2018-05-10T15:59:25.562Z,17.70
2018-05-10T16:01:53.399Z,17.70
2018-05-10T16:04:20.693Z,17.70
2018-05-10T16:06:47.870Z,17.70
2018-05-10T16:09:15.041Z,17.70
2018-05-10T16:11:42.209Z,17.70
2018-05-10T16:14:09.428Z,17.70
2018-05-10T16:16:36.689Z,17.70
2018-05-10T16:19:03.861Z,17.70
2018-05-10T16:21:31.081Z,17.70
2018-05-10T16:23:58.253Z,17.80
2018-05-10T16:26:25.471Z,18.00
2018-05-10T16:28:52.672Z,18.10
2018-05-10T16:31:19.836Z,18.20
2018-05-10T16:33:47.777Z,18.40
2018-05-10T16:36:14.948Z,18.40
2018-05-10T16:38:42.111Z,18.50
2018-05-10T16:41:10.049Z,18.50
2018-05-10T16:43:37.220Z,18.50
2018-05-10T16:46:04.438Z,18.50
2018-05-10T16:48:31.649Z,18.50
2018-05-10T16:50:59.585Z,18.50
2018-05-10T16:53:26.868Z,18.50
2018-05-10T16:55:54.061Z,18.50
2018-05-10T16:58:21.271Z,18.50
2018-05-10T17:00:49.736Z,18.40
2018-05-10T17:03:17.054Z,18.40
2018-05-10T17:05:44.347Z,18.40
2018-05-10T17:08:11.611Z,18.40
2018-05-10T17:10:39.637Z,18.40
2018-05-10T17:13:06.893Z,18.40
2018-05-10T17:15:34.140Z,18.40
2018-05-10T17:18:01.390Z,18.40
2018-05-10T17:20:28.649Z,18.40
2018-05-10T17:22:55.821Z,18.40
2018-05-10T17:25:26.091Z,18.40
2018-05-10T17:27:53.264Z,18.40
2018-05-10T17:30:20.437Z,18.30
2018-05-10T17:32:47.782Z,18.30
2018-05-10T17:35:14.953Z,18.30
2018-05-10T17:37:42.124Z,18.40
2018-05-10T17:40:09.304Z,18.40
2018-05-10T17:42:36.529Z,18.40
2018-05-10T17:45:03.701Z,18.40
2018-05-10T17:47:32.225Z,18.30
2018-05-10T17:49:59.394Z,18.30
2018-05-10T17:52:26.560Z,18.40
2018-05-10T17:54:53.882Z,18.30
2018-05-10T17:57:21.136Z,18.30
2018-05-10T17:59:48.344Z,18.30
2018-05-10T18:02:16.974Z,18.30
2018-05-10T18:04:44.144Z,18.30
2018-05-10T18:07:11.400Z,18.30
2018-05-10T18:09:38.525Z,18.30
2018-05-10T18:12:05.888Z,18.30
2018-05-10T18:14:33.141Z,18.30
2018-05-10T18:17:00.433Z,18.30
2018-05-10T18:19:27.652Z,18.30
2018-05-10T18:21:54.833Z,18.30
2018-05-10T18:24:22.904Z,18.30
2018-05-10T18:26:50.120Z,18.20
2018-05-10T18:29:17.332Z,18.30
2018-05-10T18:31:52.492Z,18.20
2018-05-10T18:34:19.706Z,18.20
2018-05-10T18:36:47.266Z,18.20
2018-05-10T18:39:15.173Z,18.20
2018-05-10T18:41:42.385Z,18.20
2018-05-10T18:44:09.706Z,18.20
2018-05-10T18:46:36.881Z,18.20
2018-05-10T18:49:04.093Z,18.20
2018-05-10T18:51:31.313Z,18.20
2018-05-10T18:53:59.317Z,18.20
2018-05-10T18:56:26.523Z,18.20
2018-05-10T18:58:53.693Z,18.20
2018-05-10T19:01:21.628Z,18.10
2018-05-10T19:03:48.806Z,18.10
2018-05-10T19:06:16.744Z,18.10
2018-05-10T19:08:43.978Z,18.10
2018-05-10T19:11:11.231Z,18.20
2018-05-10T19:13:38.521Z,18.10
2018-05-10T19:16:05.740Z,18.10
2018-05-10T19:18:32.992Z,18.10
2018-05-10T19:21:00.286Z,18.10
2018-05-10T19:23:27.503Z,18.10
2018-05-10T19:25:54.753Z,18.10
2018-05-10T19:28:21.925Z,18.10
2018-05-10T19:30:49.099Z,18.10
2018-05-10T19:33:17.129Z,18.10
2018-05-10T19:35:44.378Z,18.10
2018-05-10T19:38:11.600Z,18.10
2018-05-10T19:40:38.773Z,18.10
2018-05-10T19:43:05.944Z,18.10
2018-05-10T19:45:33.126Z,18.10
2018-05-10T19:48:00.336Z,18.10
2018-05-10T19:50:27.508Z,18.00
2018-05-10T19:52:54.745Z,18.10
2018-05-10T19:55:21.933Z,18.10
2018-05-10T19:57:49.153Z,18.00
2018-05-10T20:00:16.327Z,18.10
2018-05-10T20:02:43.540Z,18.10
2018-05-10T20:05:10.753Z,18.10
2018-05-10T20:07:38.705Z,18.10
2018-05-10T20:10:05.881Z,18.00
2018-05-10T20:12:33.818Z,18.00
2018-05-10T20:15:00.996Z,18.00
2018-05-10T20:17:29.020Z,18.00
2018-05-10T20:19:56.274Z,18.00
2018-05-10T20:22:23.532Z,18.00
2018-05-10T20:24:50.781Z,18.00
2018-05-10T20:27:17.956Z,18.10
2018-05-10T20:29:45.130Z,18.00
2018-05-10T20:32:13.238Z,18.00
2018-05-10T20:34:40.365Z,18.00
2018-05-10T20:37:08.378Z,18.00
2018-05-10T20:39:35.590Z,18.00
2018-05-10T20:42:03.608Z,18.00
2018-05-10T20:44:30.959Z,18.00
2018-05-10T20:46:58.128Z,18.00
2018-05-10T20:49:25.349Z,18.00
2018-05-10T20:51:52.658Z,18.00
2018-05-10T20:54:20.644Z,18.00
2018-05-10T20:56:48.629Z,18.00
2018-05-10T20:59:15.911Z,18.00
2018-05-10T21:01:43.120Z,18.00
2018-05-10T21:04:11.143Z,18.10
2018-05-10T21:06:38.376Z,18.00
2018-05-10T21:09:05.581Z,18.10
2018-05-10T21:11:32.753Z,18.10
2018-05-10T21:14:00.762Z,18.10
2018-05-10T21:16:27.954Z,18.00
2018-05-10T21:18:55.988Z,18.10
2018-05-10T21:21:23.156Z,18.00
2018-05-10T21:23:50.356Z,18.00
2018-05-10T21:26:17.544Z,18.00
2018-05-10T21:28:45.370Z,18.00
2018-05-10T21:31:13.319Z,18.00
2018-05-10T21:33:41.350Z,18.00
2018-05-10T21:36:08.606Z,18.00
2018-05-10T21:38:35.820Z,18.00
2018-05-10T21:41:03.757Z,18.00
2018-05-10T21:43:30.969Z,18.00
2018-05-10T21:45:58.172Z,18.00
2018-05-10T21:48:25.383Z,18.00
2018-05-10T21:50:52.640Z,18.00
2018-05-10T21:53:19.851Z,18.00
2018-05-10T21:55:48.580Z,18.00
2018-05-10T21:58:15.749Z,18.00
2018-05-10T22:00:42.964Z,18.00
2018-05-10T22:03:10.237Z,17.90
2018-05-10T22:05:37.771Z,17.90
2018-05-10T22:08:05.319Z,17.90
2018-05-10T22:10:33.244Z,17.90
2018-05-10T22:13:00.412Z,17.90
2018-05-10T22:15:27.734Z,17.90
2018-05-10T22:17:54.980Z,17.90
2018-05-10T22:20:22.151Z,17.90
2018-05-10T22:22:50.031Z,17.90
2018-05-10T22:25:17.263Z,17.90
2018-05-10T22:27:44.506Z,17.90
2018-05-10T22:30:11.705Z,17.90
2018-05-10T22:32:38.910Z,17.90
2018-05-10T22:35:06.260Z,17.90
2018-05-10T22:37:33.376Z,17.90
2018-05-10T22:40:01.495Z,17.90
2018-05-10T22:42:28.756Z,17.90
2018-05-10T22:44:55.923Z,17.90
2018-05-10T22:47:23.093Z,17.90
2018-05-10T22:49:50.304Z,17.90
2018-05-10T22:52:17.557Z,17.90
2018-05-10T22:54:44.805Z,17.90
2018-05-10T22:57:12.024Z,17.90
2018-05-10T22:59:40.088Z,17.90
2018-05-10T23:02:07.232Z,17.90
2018-05-10T23:04:35.360Z,17.90
2018-05-10T23:07:02.532Z,17.90
2018-05-10T23:09:29.701Z,17.90
2018-05-10T23:11:58.379Z,17.90
2018-05-10T23:14:25.741Z,17.90
2018-05-10T23:16:53.013Z,17.90
2018-05-10T23:19:20.984Z,17.90
2018-05-10T23:21:49.000Z,17.90
2018-05-10T23:24:16.168Z,17.90
2018-05-10T23:26:43.336Z,17.90
2018-05-10T23:29:10.564Z,17.90
2018-05-10T23:31:45.208Z,17.90
2018-05-10T23:34:14.461Z,17.90
2018-05-10T23:36:44.926Z,17.90
2018-05-10T23:39:16.181Z,17.90
2018-05-10T23:41:45.671Z,17.90
2018-05-10T23:44:12.920Z,17.90
2018-05-10T23:46:40.173Z,17.90
2018-05-10T23:49:07.356Z,17.80
2018-05-10T23:51:35.397Z,17.80
2018-05-10T23:54:05.327Z,17.80
2018-05-10T23:56:32.602Z,17.80
2018-05-10T23:58:59.924Z,17.80
